sensor_id;sensor_type;location;lat;lon;timestamp;temperature;humidity
21823;DHT22;11074;48.596;9.238;2022-09-12T00:00:48;15.80;99.90
21823;DHT22;11074;48.596;9.238;2022-09-12T00:03:14;15.70;99.90
21823;DHT22;11074;48.596;9.238;2022-09-12T00:05:44;15.60;99.90
21823;DHT22;11074;48.596;9.238;2022-09-12T00:08:12;15.60;99.90
21823;DHT22;11074;48.596;9.238;2022-09-12T00:10:41;15.50;99.90
21823;DHT22;11074;48.596;9.238;2022-09-12T00:13:09;15.60;99.90
21823;DHT22;11074;48.596;9.238;2022-09-12T00:15:39;15.50;99.90
21823;DHT22;11074;48.596;9.238;2022-09-12T00:18:07;15.50;99.90
21823;DHT22;11074;48.596;9.238;2022-09-12T00:20:41;15.50;99.90
21823;DHT22;11074;48.596;9.238;2022-09-12T00:23:08;15.50;99.90
21823;DHT22;11074;48.596;9.238;2022-09-12T00:25:42;15.50;99.90
21823;DHT22;11074;48.596;9.238;2022-09-12T00:28:11;15.50;99.90
21823;DHT22;11074;48.596;9.238;2022-09-12T00:30:46;15.50;99.90
21823;DHT22;11074;48.596;9.238;2022-09-12T00:33:14;15.50;99.90
21823;DHT22;11074;48.596;9.238;2022-09-12T00:35:46;15.50;99.90
21823;DHT22;11074;48.596;9.238;2022-09-12T00:38:14;15.50;99.90
21823;DHT22;11074;48.596;9.238;2022-09-12T00:40:41;15.50;99.90
21823;DHT22;11074;48.596;9.238;2022-09-12T00:45:56;15.50;99.90
21823;DHT22;11074;48.596;9.238;2022-09-12T00:48:31;15.50;99.90
21823;DHT22;11074;48.596;9.238;2022-09-12T00:51:02;15.60;99.90
21823;DHT22;11074;48.596;9.238;2022-09-12T00:53:28;15.50;99.90
21823;DHT22;11074;48.596;9.238;2022-09-12T00:55:54;15.50;99.90
21823;DHT22;11074;48.596;9.238;2022-09-12T00:58:25;15.40;99.90
21823;DHT22;11074;48.596;9.238;2022-09-12T01:00:55;15.40;99.90
21823;DHT22;11074;48.596;9.238;2022-09-12T01:03:23;15.50;99.90
21823;DHT22;11074;48.596;9.238;2022-09-12T01:06:02;15.50;99.90
21823;DHT22;11074;48.596;9.238;2022-09-12T01:08:35;15.40;99.90
21823;DHT22;11074;48.596;9.238;2022-09-12T01:11:02;15.30;99.90
21823;DHT22;11074;48.596;9.238;2022-09-12T01:13:31;15.30;99.90
21823;DHT22;11074;48.596;9.238;2022-09-12T01:15:59;15.30;99.90
21823;DHT22;11074;48.596;9.238;2022-09-12T01:22:08;15.30;99.90
21823;DHT22;11074;48.596;9.238;2022-09-12T01:25:08;15.30;99.90
21823;DHT22;11074;48.596;9.238;2022-09-12T01:31:07;15.30;99.90
21823;DHT22;11074;48.596;9.238;2022-09-12T01:34:09;15.20;99.90
21823;DHT22;11074;48.596;9.238;2022-09-12T01:40:08;15.20;99.90
21823;DHT22;11074;48.596;9.238;2022-09-12T01:43:11;15.20;99.90
21823;DHT22;11074;48.596;9.238;2022-09-12T01:46:05;15.10;99.90
21823;DHT22;11074;48.596;9.238;2022-09-12T01:48:59;15.10;99.90
21823;DHT22;11074;48.596;9.238;2022-09-12T01:51:37;15.10;99.90
21823;DHT22;11074;48.596;9.238;2022-09-12T01:54:30;15.10;99.90
21823;DHT22;11074;48.596;9.238;2022-09-12T01:57:01;15.00;99.90
21823;DHT22;11074;48.596;9.238;2022-09-12T01:59:39;15.00;99.90
21823;DHT22;11074;48.596;9.238;2022-09-12T02:02:32;15.10;99.90
21823;DHT22;11074;48.596;9.238;2022-09-12T02:05:10;15.00;99.90
21823;DHT22;11074;48.596;9.238;2022-09-12T02:07:45;15.10;99.90
21823;DHT22;11074;48.596;9.238;2022-09-12T02:10:19;15.00;99.90
21823;DHT22;11074;48.596;9.238;2022-09-12T02:12:53;15.00;99.90
21823;DHT22;11074;48.596;9.238;2022-09-12T02:15:31;15.00;99.90
21823;DHT22;11074;48.596;9.238;2022-09-12T02:18:04;14.80;99.90
21823;DHT22;11074;48.596;9.238;2022-09-12T02:20:35;14.70;99.90
21823;DHT22;11074;48.596;9.238;2022-09-12T02:23:05;14.70;99.90
21823;DHT22;11074;48.596;9.238;2022-09-12T02:25:37;14.70;99.90
21823;DHT22;11074;48.596;9.238;2022-09-12T02:28:22;14.70;99.90
21823;DHT22;11074;48.596;9.238;2022-09-12T02:31:20;14.70;99.90
21823;DHT22;11074;48.596;9.238;2022-09-12T02:37:07;14.70;99.90
21823;DHT22;11074;48.596;9.238;2022-09-12T02:39:43;14.80;99.90
21823;DHT22;11074;48.596;9.238;2022-09-12T02:42:08;14.70;99.90
21823;DHT22;11074;48.596;9.238;2022-09-12T02:44:36;14.70;99.90
21823;DHT22;11074;48.596;9.238;2022-09-12T02:47:11;14.70;99.90
21823;DHT22;11074;48.596;9.238;2022-09-12T02:49:43;14.70;99.90
21823;DHT22;11074;48.596;9.238;2022-09-12T02:52:09;14.70;99.90
21823;DHT22;11074;48.596;9.238;2022-09-12T02:54:36;14.70;99.90
21823;DHT22;11074;48.596;9.238;2022-09-12T02:57:02;14.60;99.90
21823;DHT22;11074;48.596;9.238;2022-09-12T02:59:39;14.60;99.90
21823;DHT22;11074;48.596;9.238;2022-09-12T03:05:15;14.50;99.90
21823;DHT22;11074;48.596;9.238;2022-09-12T03:07:51;14.40;99.90
21823;DHT22;11074;48.596;9.238;2022-09-12T03:11:00;14.30;99.90
21823;DHT22;11074;48.596;9.238;2022-09-12T03:14:24;14.30;99.90
21823;DHT22;11074;48.596;9.238;2022-09-12T03:22:52;14.50;99.90
21823;DHT22;11074;48.596;9.238;2022-09-12T03:25:59;14.50;99.90
21823;DHT22;11074;48.596;9.238;2022-09-12T03:28:22;14.50;99.90
21823;DHT22;11074;48.596;9.238;2022-09-12T03:30:48;14.50;99.90
21823;DHT22;11074;48.596;9.238;2022-09-12T03:33:19;14.40;99.90
21823;DHT22;11074;48.596;9.238;2022-09-12T03:35:47;14.40;99.90
21823;DHT22;11074;48.596;9.238;2022-09-12T03:38:14;14.40;99.90
21823;DHT22;11074;48.596;9.238;2022-09-12T03:40:40;14.40;99.90
21823;DHT22;11074;48.596;9.238;2022-09-12T03:43:07;14.40;99.90
21823;DHT22;11074;48.596;9.238;2022-09-12T03:45:34;14.30;99.90
21823;DHT22;11074;48.596;9.238;2022-09-12T03:48:01;14.20;99.90
21823;DHT22;11074;48.596;9.238;2022-09-12T03:50:27;14.30;99.90
21823;DHT22;11074;48.596;9.238;2022-09-12T03:52:53;14.20;99.90
21823;DHT22;11074;48.596;9.238;2022-09-12T03:55:19;14.30;99.90
21823;DHT22;11074;48.596;9.238;2022-09-12T03:57:45;14.30;99.90
21823;DHT22;11074;48.596;9.238;2022-09-12T04:00:11;14.30;99.90
21823;DHT22;11074;48.596;9.238;2022-09-12T04:02:37;14.20;99.90
21823;DHT22;11074;48.596;9.238;2022-09-12T04:05:03;14.20;99.90
21823;DHT22;11074;48.596;9.238;2022-09-12T04:07:30;14.20;99.90
21823;DHT22;11074;48.596;9.238;2022-09-12T04:09:55;14.20;99.90
21823;DHT22;11074;48.596;9.238;2022-09-12T04:12:21;14.20;99.90
21823;DHT22;11074;48.596;9.238;2022-09-12T04:14:48;14.10;99.90
21823;DHT22;11074;48.596;9.238;2022-09-12T04:17:14;14.10;99.90
21823;DHT22;11074;48.596;9.238;2022-09-12T04:19:40;14.00;99.90
21823;DHT22;11074;48.596;9.238;2022-09-12T04:22:05;14.00;99.90
21823;DHT22;11074;48.596;9.238;2022-09-12T04:24:31;14.00;99.90
21823;DHT22;11074;48.596;9.238;2022-09-12T04:26:57;14.10;99.90
21823;DHT22;11074;48.596;9.238;2022-09-12T04:29:23;14.10;99.90
21823;DHT22;11074;48.596;9.238;2022-09-12T04:31:48;14.10;99.90
21823;DHT22;11074;48.596;9.238;2022-09-12T04:34:15;14.20;99.90
21823;DHT22;11074;48.596;9.238;2022-09-12T04:36:41;14.10;99.90
21823;DHT22;11074;48.596;9.238;2022-09-12T04:39:07;14.10;99.90
21823;DHT22;11074;48.596;9.238;2022-09-12T04:41:35;14.10;99.90
21823;DHT22;11074;48.596;9.238;2022-09-12T04:44:05;14.10;99.90
21823;DHT22;11074;48.596;9.238;2022-09-12T04:46:37;14.10;99.90
21823;DHT22;11074;48.596;9.238;2022-09-12T04:49:04;14.00;99.90
21823;DHT22;11074;48.596;9.238;2022-09-12T04:51:36;14.10;99.90
21823;DHT22;11074;48.596;9.238;2022-09-12T04:54:06;14.10;99.90
21823;DHT22;11074;48.596;9.238;2022-09-12T04:56:40;14.10;99.90
21823;DHT22;11074;48.596;9.238;2022-09-12T04:59:07;14.10;99.90
21823;DHT22;11074;48.596;9.238;2022-09-12T05:01:34;14.10;99.90
21823;DHT22;11074;48.596;9.238;2022-09-12T05:04:00;14.10;99.90
21823;DHT22;11074;48.596;9.238;2022-09-12T05:06:29;14.10;99.90
21823;DHT22;11074;48.596;9.238;2022-09-12T05:08:56;14.00;99.90
21823;DHT22;11074;48.596;9.238;2022-09-12T05:11:32;14.00;99.90
21823;DHT22;11074;48.596;9.238;2022-09-12T05:13:59;14.00;99.90
21823;DHT22;11074;48.596;9.238;2022-09-12T05:16:26;14.00;99.90
21823;DHT22;11074;48.596;9.238;2022-09-12T05:18:54;14.00;99.90
21823;DHT22;11074;48.596;9.238;2022-09-12T05:21:22;14.00;99.90
21823;DHT22;11074;48.596;9.238;2022-09-12T05:23:52;14.00;99.90
21823;DHT22;11074;48.596;9.238;2022-09-12T05:26:20;13.90;99.90
21823;DHT22;11074;48.596;9.238;2022-09-12T05:28:48;13.80;99.90
21823;DHT22;11074;48.596;9.238;2022-09-12T05:31:21;13.80;99.90
21823;DHT22;11074;48.596;9.238;2022-09-12T05:33:52;13.70;99.90
21823;DHT22;11074;48.596;9.238;2022-09-12T05:36:22;13.70;99.90
21823;DHT22;11074;48.596;9.238;2022-09-12T05:38:51;13.70;99.90
21823;DHT22;11074;48.596;9.238;2022-09-12T05:41:22;13.60;99.90
21823;DHT22;11074;48.596;9.238;2022-09-12T05:43:54;13.60;99.90
21823;DHT22;11074;48.596;9.238;2022-09-12T05:46:25;13.50;99.90
21823;DHT22;11074;48.596;9.238;2022-09-12T05:49:06;13.60;99.90
21823;DHT22;11074;48.596;9.238;2022-09-12T05:51:35;13.50;99.90
21823;DHT22;11074;48.596;9.238;2022-09-12T05:54:04;13.50;99.90
21823;DHT22;11074;48.596;9.238;2022-09-12T05:56:33;13.50;99.90
21823;DHT22;11074;48.596;9.238;2022-09-12T05:59:05;13.50;99.90
21823;DHT22;11074;48.596;9.238;2022-09-12T06:01:36;13.40;99.90
21823;DHT22;11074;48.596;9.238;2022-09-12T06:04:03;13.30;99.90
21823;DHT22;11074;48.596;9.238;2022-09-12T06:06:33;13.30;99.90
21823;DHT22;11074;48.596;9.238;2022-09-12T06:09:03;13.40;99.90
21823;DHT22;11074;48.596;9.238;2022-09-12T06:11:33;13.50;99.90
21823;DHT22;11074;48.596;9.238;2022-09-12T06:14:02;13.50;99.90
21823;DHT22;11074;48.596;9.238;2022-09-12T06:16:30;13.50;99.90
21823;DHT22;11074;48.596;9.238;2022-09-12T06:18:59;13.50;99.90
21823;DHT22;11074;48.596;9.238;2022-09-12T06:21:28;13.60;99.90
21823;DHT22;11074;48.596;9.238;2022-09-12T06:24:00;13.70;99.90
21823;DHT22;11074;48.596;9.238;2022-09-12T06:26:27;13.60;99.90
21823;DHT22;11074;48.596;9.238;2022-09-12T06:28:54;13.60;99.90
21823;DHT22;11074;48.596;9.238;2022-09-12T06:31:23;13.60;99.90
21823;DHT22;11074;48.596;9.238;2022-09-12T06:33:52;13.70;99.90
21823;DHT22;11074;48.596;9.238;2022-09-12T06:36:22;13.70;99.90
21823;DHT22;11074;48.596;9.238;2022-09-12T06:38:54;13.70;99.90
21823;DHT22;11074;48.596;9.238;2022-09-12T06:41:25;13.70;99.90
21823;DHT22;11074;48.596;9.238;2022-09-12T06:43:53;13.70;99.90
21823;DHT22;11074;48.596;9.238;2022-09-12T06:46:19;13.70;99.90
21823;DHT22;11074;48.596;9.238;2022-09-12T06:48:45;13.70;99.90
21823;DHT22;11074;48.596;9.238;2022-09-12T06:51:13;13.70;99.90
21823;DHT22;11074;48.596;9.238;2022-09-12T06:53:40;13.80;99.90
21823;DHT22;11074;48.596;9.238;2022-09-12T06:56:16;13.80;99.90
21823;DHT22;11074;48.596;9.238;2022-09-12T06:58:46;13.90;99.90
21823;DHT22;11074;48.596;9.238;2022-09-12T07:01:15;14.00;99.90
21823;DHT22;11074;48.596;9.238;2022-09-12T07:03:45;14.00;99.90
21823;DHT22;11074;48.596;9.238;2022-09-12T07:06:14;14.10;99.90
21823;DHT22;11074;48.596;9.238;2022-09-12T07:08:42;14.10;99.90
21823;DHT22;11074;48.596;9.238;2022-09-12T07:11:23;14.10;99.90
21823;DHT22;11074;48.596;9.238;2022-09-12T07:13:53;14.10;99.90
21823;DHT22;11074;48.596;9.238;2022-09-12T07:16:23;14.20;99.90
21823;DHT22;11074;48.596;9.238;2022-09-12T07:18:57;14.20;99.90
21823;DHT22;11074;48.596;9.238;2022-09-12T07:21:25;14.30;99.90
21823;DHT22;11074;48.596;9.238;2022-09-12T07:23:52;14.40;99.90
21823;DHT22;11074;48.596;9.238;2022-09-12T07:26:20;14.40;99.90
21823;DHT22;11074;48.596;9.238;2022-09-12T07:28:50;14.40;99.90
21823;DHT22;11074;48.596;9.238;2022-09-12T07:31:21;14.40;99.90
21823;DHT22;11074;48.596;9.238;2022-09-12T07:33:49;14.40;99.90
21823;DHT22;11074;48.596;9.238;2022-09-12T07:36:17;14.40;99.90
21823;DHT22;11074;48.596;9.238;2022-09-12T07:38:44;14.50;99.90
21823;DHT22;11074;48.596;9.238;2022-09-12T07:41:17;14.50;99.90
21823;DHT22;11074;48.596;9.238;2022-09-12T07:43:45;14.50;99.90
21823;DHT22;11074;48.596;9.238;2022-09-12T07:46:11;14.60;99.90
21823;DHT22;11074;48.596;9.238;2022-09-12T07:48:39;14.60;99.90
21823;DHT22;11074;48.596;9.238;2022-09-12T07:51:07;14.60;99.90
21823;DHT22;11074;48.596;9.238;2022-09-12T07:53:37;14.70;99.90
21823;DHT22;11074;48.596;9.238;2022-09-12T07:56:05;14.70;99.90
21823;DHT22;11074;48.596;9.238;2022-09-12T07:58:33;14.70;99.90
21823;DHT22;11074;48.596;9.238;2022-09-12T08:01:12;14.80;99.90
21823;DHT22;11074;48.596;9.238;2022-09-12T08:03:40;14.80;99.90
21823;DHT22;11074;48.596;9.238;2022-09-12T08:06:11;14.80;99.90
21823;DHT22;11074;48.596;9.238;2022-09-12T08:08:40;14.80;99.90
21823;DHT22;11074;48.596;9.238;2022-09-12T08:11:08;14.90;99.90
21823;DHT22;11074;48.596;9.238;2022-09-12T08:13:38;14.90;99.90
21823;DHT22;11074;48.596;9.238;2022-09-12T08:16:16;14.80;99.90
21823;DHT22;11074;48.596;9.238;2022-09-12T08:18:45;14.90;99.90
21823;DHT22;11074;48.596;9.238;2022-09-12T08:21:16;14.80;99.90
21823;DHT22;11074;48.596;9.238;2022-09-12T08:23:43;14.80;99.90
21823;DHT22;11074;48.596;9.238;2022-09-12T08:26:13;14.80;99.90
21823;DHT22;11074;48.596;9.238;2022-09-12T08:28:39;14.80;99.90
21823;DHT22;11074;48.596;9.238;2022-09-12T08:31:12;14.80;99.90
21823;DHT22;11074;48.596;9.238;2022-09-12T08:33:40;14.80;99.90
21823;DHT22;11074;48.596;9.238;2022-09-12T08:36:09;14.80;99.90
21823;DHT22;11074;48.596;9.238;2022-09-12T08:38:44;14.90;99.90
21823;DHT22;11074;48.596;9.238;2022-09-12T08:49:58;15.00;99.90
21823;DHT22;11074;48.596;9.238;2022-09-12T08:52:54;15.00;99.90
21823;DHT22;11074;48.596;9.238;2022-09-12T08:55:42;15.10;99.90
21823;DHT22;11074;48.596;9.238;2022-09-12T08:58:11;15.20;99.90
21823;DHT22;11074;48.596;9.238;2022-09-12T09:04:14;15.30;99.90
21823;DHT22;11074;48.596;9.238;2022-09-12T09:07:38;15.40;99.90
21823;DHT22;11074;48.596;9.238;2022-09-12T09:10:23;15.50;99.90
21823;DHT22;11074;48.596;9.238;2022-09-12T09:13:27;15.60;99.90
21823;DHT22;11074;48.596;9.238;2022-09-12T09:16:31;15.60;99.90
21823;DHT22;11074;48.596;9.238;2022-09-12T09:19:22;15.70;99.90
21823;DHT22;11074;48.596;9.238;2022-09-12T09:21:58;15.80;99.90
21823;DHT22;11074;48.596;9.238;2022-09-12T09:24:32;15.90;99.90
21823;DHT22;11074;48.596;9.238;2022-09-12T09:27:09;15.90;99.90
21823;DHT22;11074;48.596;9.238;2022-09-12T09:29:46;16.00;99.90
21823;DHT22;11074;48.596;9.238;2022-09-12T09:32:20;16.10;99.90
21823;DHT22;11074;48.596;9.238;2022-09-12T09:34:50;16.20;99.90
21823;DHT22;11074;48.596;9.238;2022-09-12T09:37:20;16.20;99.90
21823;DHT22;11074;48.596;9.238;2022-09-12T09:45:40;16.50;99.90
21823;DHT22;11074;48.596;9.238;2022-09-12T09:48:30;16.60;99.90
21823;DHT22;11074;48.596;9.238;2022-09-12T09:51:01;16.70;99.90
21823;DHT22;11074;48.596;9.238;2022-09-12T09:53:47;16.80;99.90
21823;DHT22;11074;48.596;9.238;2022-09-12T09:56:25;16.90;99.90
21823;DHT22;11074;48.596;9.238;2022-09-12T09:59:30;17.00;99.90
21823;DHT22;11074;48.596;9.238;2022-09-12T10:04:40;17.10;99.90
21823;DHT22;11074;48.596;9.238;2022-09-12T10:07:19;17.20;99.90
21823;DHT22;11074;48.596;9.238;2022-09-12T10:10:16;17.30;99.90
21823;DHT22;11074;48.596;9.238;2022-09-12T10:12:43;17.40;99.90
21823;DHT22;11074;48.596;9.238;2022-09-12T10:15:17;17.50;99.90
21823;DHT22;11074;48.596;9.238;2022-09-12T10:17:45;17.60;99.90
21823;DHT22;11074;48.596;9.238;2022-09-12T10:20:43;17.70;99.90
21823;DHT22;11074;48.596;9.238;2022-09-12T10:23:32;17.80;99.90
21823;DHT22;11074;48.596;9.238;2022-09-12T10:26:04;18.00;99.90
21823;DHT22;11074;48.596;9.238;2022-09-12T10:28:38;18.00;99.90
21823;DHT22;11074;48.596;9.238;2022-09-12T10:31:10;18.10;99.90
21823;DHT22;11074;48.596;9.238;2022-09-12T10:33:47;18.20;99.90
21823;DHT22;11074;48.596;9.238;2022-09-12T10:36:18;18.30;99.90
21823;DHT22;11074;48.596;9.238;2022-09-12T10:38:55;18.30;99.90
21823;DHT22;11074;48.596;9.238;2022-09-12T10:41:23;18.40;99.90
21823;DHT22;11074;48.596;9.238;2022-09-12T10:43:50;18.50;99.90
21823;DHT22;11074;48.596;9.238;2022-09-12T10:48:47;18.70;99.90
21823;DHT22;11074;48.596;9.238;2022-09-12T10:53:51;18.90;99.90
21823;DHT22;11074;48.596;9.238;2022-09-12T10:56:27;18.90;99.90
21823;DHT22;11074;48.596;9.238;2022-09-12T10:59:07;19.00;99.90
21823;DHT22;11074;48.596;9.238;2022-09-12T11:04:41;19.20;99.90
21823;DHT22;11074;48.596;9.238;2022-09-12T11:07:46;19.30;99.90
21823;DHT22;11074;48.596;9.238;2022-09-12T11:10:44;19.30;99.90
21823;DHT22;11074;48.596;9.238;2022-09-12T11:16:35;19.50;99.90
21823;DHT22;11074;48.596;9.238;2022-09-12T11:28:32;19.90;99.90
21823;DHT22;11074;48.596;9.238;2022-09-12T11:33:49;20.10;99.90
21823;DHT22;11074;48.596;9.238;2022-09-12T11:36:38;20.10;99.90
21823;DHT22;11074;48.596;9.238;2022-09-12T11:39:37;20.20;99.90
21823;DHT22;11074;48.596;9.238;2022-09-12T11:42:14;20.30;99.90
21823;DHT22;11074;48.596;9.238;2022-09-12T11:44:47;20.40;99.90
21823;DHT22;11074;48.596;9.238;2022-09-12T11:47:21;20.70;99.90
21823;DHT22;11074;48.596;9.238;2022-09-12T11:49:51;20.90;99.90
21823;DHT22;11074;48.596;9.238;2022-09-12T11:52:22;21.10;99.90
21823;DHT22;11074;48.596;9.238;2022-09-12T11:55:00;21.30;99.90
21823;DHT22;11074;48.596;9.238;2022-09-12T11:57:43;21.50;99.90
21823;DHT22;11074;48.596;9.238;2022-09-12T12:00:19;21.50;99.90
21823;DHT22;11074;48.596;9.238;2022-09-12T12:08:04;21.70;99.90
21823;DHT22;11074;48.596;9.238;2022-09-12T12:10:38;21.80;99.90
21823;DHT22;11074;48.596;9.238;2022-09-12T12:13:14;21.90;99.90
21823;DHT22;11074;48.596;9.238;2022-09-12T12:16:13;21.90;99.90
21823;DHT22;11074;48.596;9.238;2022-09-12T12:18:58;21.80;99.90
21823;DHT22;11074;48.596;9.238;2022-09-12T12:21:47;21.80;99.90
21823;DHT22;11074;48.596;9.238;2022-09-12T12:24:20;22.00;99.90
21823;DHT22;11074;48.596;9.238;2022-09-12T12:27:01;22.10;99.90
21823;DHT22;11074;48.596;9.238;2022-09-12T12:34:37;22.30;99.90
21823;DHT22;11074;48.596;9.238;2022-09-12T12:44:58;22.80;99.90
21823;DHT22;11074;48.596;9.238;2022-09-12T12:52:24;23.10;99.90
21823;DHT22;11074;48.596;9.238;2022-09-12T12:54:57;23.20;99.90
21823;DHT22;11074;48.596;9.238;2022-09-12T12:57:44;23.40;99.90
21823;DHT22;11074;48.596;9.238;2022-09-12T13:05:26;23.60;99.90
21823;DHT22;11074;48.596;9.238;2022-09-12T13:07:58;23.60;99.90
21823;DHT22;11074;48.596;9.238;2022-09-12T13:10:29;23.70;99.90
21823;DHT22;11074;48.596;9.238;2022-09-12T13:13:01;23.70;99.90
21823;DHT22;11074;48.596;9.238;2022-09-12T13:18:05;23.90;99.90
21823;DHT22;11074;48.596;9.238;2022-09-12T13:20:43;24.00;99.90
21823;DHT22;11074;48.596;9.238;2022-09-12T13:23:23;23.90;99.90
21823;DHT22;11074;48.596;9.238;2022-09-12T13:25:54;23.90;99.90
21823;DHT22;11074;48.596;9.238;2022-09-12T13:28:22;23.80;99.90
21823;DHT22;11074;48.596;9.238;2022-09-12T13:31:13;23.90;99.90
21823;DHT22;11074;48.596;9.238;2022-09-12T13:33:58;23.90;99.90
21823;DHT22;11074;48.596;9.238;2022-09-12T13:36:56;23.90;99.90
21823;DHT22;11074;48.596;9.238;2022-09-12T13:39:48;24.00;99.90
21823;DHT22;11074;48.596;9.238;2022-09-12T13:45:18;24.10;99.90
21823;DHT22;11074;48.596;9.238;2022-09-12T13:47:49;24.10;99.90
21823;DHT22;11074;48.596;9.238;2022-09-12T13:50:22;24.20;99.90
21823;DHT22;11074;48.596;9.238;2022-09-12T13:52:53;24.20;99.90
21823;DHT22;11074;48.596;9.238;2022-09-12T13:55:34;24.20;99.90
21823;DHT22;11074;48.596;9.238;2022-09-12T13:58:26;24.20;99.90
21823;DHT22;11074;48.596;9.238;2022-09-12T14:01:10;24.30;99.90
21823;DHT22;11074;48.596;9.238;2022-09-12T14:03:56;24.20;99.90
21823;DHT22;11074;48.596;9.238;2022-09-12T14:06:49;24.20;99.90
21823;DHT22;11074;48.596;9.238;2022-09-12T14:09:25;24.10;99.90
21823;DHT22;11074;48.596;9.238;2022-09-12T14:11:54;24.10;99.90
21823;DHT22;11074;48.596;9.238;2022-09-12T14:14:30;24.20;99.90
21823;DHT22;11074;48.596;9.238;2022-09-12T14:17:01;24.20;99.90
21823;DHT22;11074;48.596;9.238;2022-09-12T14:19:54;24.20;99.90
21823;DHT22;11074;48.596;9.238;2022-09-12T14:22:23;24.30;99.90
21823;DHT22;11074;48.596;9.238;2022-09-12T14:24:51;24.30;99.90
21823;DHT22;11074;48.596;9.238;2022-09-12T14:27:22;24.30;99.90
21823;DHT22;11074;48.596;9.238;2022-09-12T14:35:44;24.40;99.90
21823;DHT22;11074;48.596;9.238;2022-09-12T14:41:01;24.50;99.90
21823;DHT22;11074;48.596;9.238;2022-09-12T14:43:33;24.50;99.90
21823;DHT22;11074;48.596;9.238;2022-09-12T14:46:13;24.50;99.90
21823;DHT22;11074;48.596;9.238;2022-09-12T14:48:57;24.60;99.90
21823;DHT22;11074;48.596;9.238;2022-09-12T14:51:33;24.70;99.90
21823;DHT22;11074;48.596;9.238;2022-09-12T14:54:01;24.80;99.90
21823;DHT22;11074;48.596;9.238;2022-09-12T14:56:51;24.80;99.90
21823;DHT22;11074;48.596;9.238;2022-09-12T14:59:29;24.80;99.90
21823;DHT22;11074;48.596;9.238;2022-09-12T15:04:48;24.80;99.90
21823;DHT22;11074;48.596;9.238;2022-09-12T15:07:43;24.80;99.90
21823;DHT22;11074;48.596;9.238;2022-09-12T15:10:25;24.80;99.90
21823;DHT22;11074;48.596;9.238;2022-09-12T15:15:41;25.00;99.90
21823;DHT22;11074;48.596;9.238;2022-09-12T15:18:08;25.20;99.90
21823;DHT22;11074;48.596;9.238;2022-09-12T15:20:36;25.10;99.90
21823;DHT22;11074;48.596;9.238;2022-09-12T15:23:23;25.10;99.90
21823;DHT22;11074;48.596;9.238;2022-09-12T15:25:51;25.10;99.90
21823;DHT22;11074;48.596;9.238;2022-09-12T15:28:20;25.20;99.90
21823;DHT22;11074;48.596;9.238;2022-09-12T15:30:48;25.10;99.90
21823;DHT22;11074;48.596;9.238;2022-09-12T15:33:18;25.10;99.90
21823;DHT22;11074;48.596;9.238;2022-09-12T15:35:45;25.10;99.90
21823;DHT22;11074;48.596;9.238;2022-09-12T15:38:11;25.00;99.90
21823;DHT22;11074;48.596;9.238;2022-09-12T15:40:37;25.00;99.90
21823;DHT22;11074;48.596;9.238;2022-09-12T15:43:03;25.00;99.90
21823;DHT22;11074;48.596;9.238;2022-09-12T15:45:31;24.90;99.90
21823;DHT22;11074;48.596;9.238;2022-09-12T15:47:58;25.00;99.90
21823;DHT22;11074;48.596;9.238;2022-09-12T15:50:25;24.90;99.90
21823;DHT22;11074;48.596;9.238;2022-09-12T15:52:53;24.90;99.90
21823;DHT22;11074;48.596;9.238;2022-09-12T15:55:21;25.00;99.90
21823;DHT22;11074;48.596;9.238;2022-09-12T15:57:52;25.00;99.90
21823;DHT22;11074;48.596;9.238;2022-09-12T16:00:18;25.10;99.90
21823;DHT22;11074;48.596;9.238;2022-09-12T16:02:45;25.10;99.90
21823;DHT22;11074;48.596;9.238;2022-09-12T16:05:24;25.30;99.90
21823;DHT22;11074;48.596;9.238;2022-09-12T16:07:54;25.20;99.90
21823;DHT22;11074;48.596;9.238;2022-09-12T16:10:22;25.00;99.90
21823;DHT22;11074;48.596;9.238;2022-09-12T16:12:50;24.80;99.90
21823;DHT22;11074;48.596;9.238;2022-09-12T16:15:19;24.50;99.90
21823;DHT22;11074;48.596;9.238;2022-09-12T16:17:49;24.30;99.90
21823;DHT22;11074;48.596;9.238;2022-09-12T16:20:15;24.10;99.90
21823;DHT22;11074;48.596;9.238;2022-09-12T16:22:41;23.90;99.90
21823;DHT22;11074;48.596;9.238;2022-09-12T16:25:07;23.70;99.90
21823;DHT22;11074;48.596;9.238;2022-09-12T16:27:34;23.60;99.90
21823;DHT22;11074;48.596;9.238;2022-09-12T16:30:00;23.40;99.90
21823;DHT22;11074;48.596;9.238;2022-09-12T16:32:26;23.30;99.90
21823;DHT22;11074;48.596;9.238;2022-09-12T16:34:52;23.10;99.90
21823;DHT22;11074;48.596;9.238;2022-09-12T16:37:18;22.90;99.90
21823;DHT22;11074;48.596;9.238;2022-09-12T16:39:44;22.80;99.90
21823;DHT22;11074;48.596;9.238;2022-09-12T16:42:09;22.70;99.90
21823;DHT22;11074;48.596;9.238;2022-09-12T16:44:35;22.60;99.90
21823;DHT22;11074;48.596;9.238;2022-09-12T16:47:01;22.60;99.90
21823;DHT22;11074;48.596;9.238;2022-09-12T16:49:26;22.50;99.90
21823;DHT22;11074;48.596;9.238;2022-09-12T16:51:52;22.50;99.90
21823;DHT22;11074;48.596;9.238;2022-09-12T16:54:18;22.30;99.90
21823;DHT22;11074;48.596;9.238;2022-09-12T16:56:43;22.20;99.90
21823;DHT22;11074;48.596;9.238;2022-09-12T16:59:11;22.20;99.90
21823;DHT22;11074;48.596;9.238;2022-09-12T17:01:40;22.10;99.90
21823;DHT22;11074;48.596;9.238;2022-09-12T17:04:08;22.20;99.90
21823;DHT22;11074;48.596;9.238;2022-09-12T17:06:35;22.10;99.90
21823;DHT22;11074;48.596;9.238;2022-09-12T17:09:01;22.10;99.90
21823;DHT22;11074;48.596;9.238;2022-09-12T17:11:35;21.90;99.90
21823;DHT22;11074;48.596;9.238;2022-09-12T17:14:05;21.90;99.90
21823;DHT22;11074;48.596;9.238;2022-09-12T17:16:37;21.80;99.90
21823;DHT22;11074;48.596;9.238;2022-09-12T17:19:05;21.80;99.90
21823;DHT22;11074;48.596;9.238;2022-09-12T17:21:31;21.80;99.90
21823;DHT22;11074;48.596;9.238;2022-09-12T17:23:58;21.70;99.90
21823;DHT22;11074;48.596;9.238;2022-09-12T17:26:24;21.70;99.90
21823;DHT22;11074;48.596;9.238;2022-09-12T17:28:51;21.70;99.90
21823;DHT22;11074;48.596;9.238;2022-09-12T17:31:16;21.60;99.90
21823;DHT22;11074;48.596;9.238;2022-09-12T17:33:42;21.50;99.90
21823;DHT22;11074;48.596;9.238;2022-09-12T17:36:12;21.50;99.90
21823;DHT22;11074;48.596;9.238;2022-09-12T17:38:41;21.40;99.90
21823;DHT22;11074;48.596;9.238;2022-09-12T17:41:14;21.30;99.90
21823;DHT22;11074;48.596;9.238;2022-09-12T17:43:46;21.20;99.90
21823;DHT22;11074;48.596;9.238;2022-09-12T17:46:15;21.20;99.90
21823;DHT22;11074;48.596;9.238;2022-09-12T17:48:42;21.20;99.90
21823;DHT22;11074;48.596;9.238;2022-09-12T17:51:13;21.20;99.90
21823;DHT22;11074;48.596;9.238;2022-09-12T17:53:42;21.20;99.90
21823;DHT22;11074;48.596;9.238;2022-09-12T17:56:08;21.10;99.90
21823;DHT22;11074;48.596;9.238;2022-09-12T17:58:35;21.00;99.90
21823;DHT22;11074;48.596;9.238;2022-09-12T18:01:02;20.90;99.90
21823;DHT22;11074;48.596;9.238;2022-09-12T18:03:49;20.90;99.90